createdAt,value
2023-06-26T00:02:18.540Z,100.00
2023-06-26T00:04:45.468Z,100.00
2023-06-26T00:07:12.565Z,100.00
2023-06-26T00:09:39.415Z,100.00
2023-06-26T00:12:06.743Z,100.00
2023-06-26T00:14:33.427Z,100.00
2023-06-26T00:16:59.929Z,100.00
2023-06-26T00:19:26.443Z,100.00
2023-06-26T00:21:53.370Z,100.00
2023-06-26T00:24:20.423Z,100.00
2023-06-26T00:26:48.382Z,100.00
2023-06-26T00:29:15.296Z,100.00
2023-06-26T00:31:42.139Z,100.00
2023-06-26T00:34:08.798Z,100.00
2023-06-26T00:36:35.698Z,100.00
2023-06-26T00:39:02.347Z,100.00
2023-06-26T00:41:29.106Z,100.00
2023-06-26T00:43:55.650Z,100.00
2023-06-26T00:46:23.122Z,100.00
2023-06-26T00:48:50.244Z,100.00
2023-06-26T00:51:17.709Z,100.00
2023-06-26T00:53:44.904Z,100.00
2023-06-26T00:56:12.498Z,100.00
2023-06-26T00:58:39.010Z,100.00
2023-06-26T01:01:07.173Z,100.00
2023-06-26T01:03:33.737Z,100.00
2023-06-26T01:06:01.308Z,100.00
2023-06-26T01:08:28.654Z,100.00
2023-06-26T01:10:55.279Z,100.00
2023-06-26T01:13:22.429Z,100.00
2023-06-26T01:15:50.176Z,100.00
2023-06-26T01:18:17.857Z,100.00
2023-06-26T01:20:46.050Z,100.00
2023-06-26T01:23:40.617Z,100.00
2023-06-26T01:26:10.187Z,100.00
2023-06-26T01:28:43.264Z,100.00
2023-06-26T01:31:12.032Z,100.00
2023-06-26T01:33:39.905Z,100.00
2023-06-26T01:36:07.321Z,100.00
2023-06-26T01:38:35.666Z,100.00
2023-06-26T01:41:02.925Z,100.00
2023-06-26T01:44:00.666Z,100.00
2023-06-26T01:46:47.957Z,100.00
2023-06-26T01:50:00.288Z,100.00
2023-06-26T01:52:37.318Z,100.00
2023-06-26T01:55:24.967Z,100.00
2023-06-26T01:57:55.517Z,100.00
2023-06-26T02:00:23.307Z,100.00
2023-06-26T02:02:49.973Z,100.00
2023-06-26T02:05:17.185Z,100.00
2023-06-26T02:07:44.855Z,100.00
2023-06-26T02:10:11.777Z,100.00
2023-06-26T02:12:38.785Z,100.00
2023-06-26T02:15:07.494Z,100.00
2023-06-26T02:17:34.598Z,100.00
2023-06-26T02:20:01.333Z,100.00
2023-06-26T02:22:29.645Z,100.00
2023-06-26T02:24:56.362Z,100.00
2023-06-26T02:27:22.919Z,100.00
2023-06-26T02:29:49.716Z,100.00
2023-06-26T02:32:16.802Z,100.00
2023-06-26T02:34:43.701Z,100.00
2023-06-26T02:37:11.482Z,100.00
2023-06-26T02:39:38.044Z,100.00
2023-06-26T02:42:05.062Z,100.00
2023-06-26T02:44:31.663Z,100.00
2023-06-26T02:46:58.612Z,100.00
2023-06-26T02:49:25.137Z,100.00
2023-06-26T02:51:52.047Z,100.00
2023-06-26T02:54:18.589Z,100.00
2023-06-26T02:56:47.968Z,100.00
2023-06-26T02:59:15.096Z,100.00
2023-06-26T03:01:41.981Z,100.00
2023-06-26T03:04:09.222Z,100.00
2023-06-26T03:06:35.935Z,100.00
2023-06-26T03:09:03.994Z,100.00
2023-06-26T03:11:30.512Z,100.00
2023-06-26T03:13:57.409Z,100.00
2023-06-26T03:16:23.943Z,100.00
2023-06-26T03:18:50.479Z,100.00
2023-06-26T03:21:17.189Z,100.00
2023-06-26T03:23:43.791Z,100.00
2023-06-26T03:26:10.918Z,100.00
2023-06-26T03:28:37.568Z,100.00
2023-06-26T03:31:04.252Z,100.00
2023-06-26T03:33:31.725Z,100.00
2023-06-26T03:35:58.687Z,100.00
2023-06-26T03:38:27.314Z,100.00
2023-06-26T03:40:54.289Z,100.00
2023-06-26T03:43:20.973Z,100.00
2023-06-26T03:45:47.782Z,100.00
2023-06-26T03:48:15.012Z,100.00
2023-06-26T03:50:43.486Z,100.00
2023-06-26T03:53:10.236Z,100.00
2023-06-26T03:55:37.146Z,100.00
2023-06-26T03:58:04.130Z,100.00
2023-06-26T04:00:31.118Z,100.00
2023-06-26T04:02:58.466Z,100.00
2023-06-26T04:05:25.179Z,100.00
2023-06-26T04:07:52.694Z,100.00
2023-06-26T04:10:19.697Z,100.00
2023-06-26T04:12:46.338Z,100.00
2023-06-26T04:15:13.059Z,100.00
2023-06-26T04:17:39.637Z,100.00
2023-06-26T04:20:07.495Z,100.00
2023-06-26T04:22:34.658Z,100.00
2023-06-26T04:25:05.292Z,100.00
2023-06-26T04:27:34.296Z,100.00
2023-06-26T04:30:02.316Z,100.00
2023-06-26T04:32:28.969Z,100.00
2023-06-26T04:34:55.496Z,100.00
2023-06-26T04:37:23.269Z,100.00
2023-06-26T04:39:49.804Z,100.00
2023-06-26T04:42:16.799Z,100.00
2023-06-26T04:44:43.574Z,100.00
2023-06-26T04:47:51.443Z,100.00
2023-06-26T04:50:23.936Z,100.00
2023-06-26T04:52:50.545Z,100.00
2023-06-26T04:55:17.238Z,100.00
2023-06-26T04:57:43.803Z,100.00
2023-06-26T05:00:12.423Z,100.00
2023-06-26T05:02:39.041Z,88.83
2023-06-26T05:05:05.964Z,84.10
2023-06-26T05:07:32.713Z,90.89
2023-06-26T05:09:59.269Z,95.18
2023-06-26T05:12:25.826Z,84.59
2023-06-26T05:14:52.432Z,80.09
2023-06-26T05:17:19.059Z,82.72
2023-06-26T05:19:45.764Z,85.87
2023-06-26T05:22:14.037Z,92.87
2023-06-26T05:24:44.057Z,96.31
2023-06-26T05:27:11.993Z,99.67
2023-06-26T05:29:39.180Z,100.00
2023-06-26T05:32:07.664Z,100.00
2023-06-26T05:34:35.328Z,100.00
2023-06-26T05:37:03.056Z,100.00
2023-06-26T05:39:29.847Z,100.00
2023-06-26T05:41:57.854Z,100.00
2023-06-26T05:44:24.735Z,100.00
2023-06-26T05:46:51.878Z,100.00
2023-06-26T05:49:19.483Z,100.00
2023-06-26T05:51:46.322Z,100.00
2023-06-26T05:54:14.302Z,100.00
2023-06-26T05:56:43.441Z,100.00
2023-06-26T05:59:12.942Z,100.00
2023-06-26T06:01:39.775Z,100.00
2023-06-26T06:04:06.427Z,100.00
2023-06-26T06:06:33.031Z,100.00
2023-06-26T06:08:59.651Z,100.00
2023-06-26T06:11:26.134Z,100.00
2023-06-26T06:13:53.114Z,100.00
2023-06-26T06:16:19.636Z,100.00
2023-06-26T06:18:46.282Z,100.00
2023-06-26T06:21:12.815Z,100.00
2023-06-26T06:23:39.746Z,100.00
2023-06-26T06:26:06.276Z,100.00
2023-06-26T06:28:32.804Z,100.00
2023-06-26T06:31:00.351Z,100.00
2023-06-26T06:33:27.273Z,100.00
2023-06-26T06:35:54.014Z,100.00
2023-06-26T06:38:20.606Z,100.00
2023-06-26T06:40:47.064Z,100.00
2023-06-26T06:43:14.134Z,100.00
2023-06-26T06:45:40.762Z,100.00
2023-06-26T06:48:08.929Z,100.00
2023-06-26T06:50:36.182Z,100.00
2023-06-26T06:53:03.165Z,100.00
2023-06-26T06:55:30.170Z,100.00
2023-06-26T06:57:57.343Z,100.00
2023-06-26T07:00:24.095Z,100.00
2023-06-26T07:02:50.866Z,100.00
2023-06-26T07:05:17.634Z,100.00
2023-06-26T07:07:44.370Z,100.00
2023-06-26T07:10:13.142Z,100.00
2023-06-26T07:12:40.204Z,100.00
2023-06-26T07:15:07.620Z,100.00
2023-06-26T07:17:35.449Z,100.00
2023-06-26T07:20:05.373Z,100.00
2023-06-26T07:22:32.356Z,100.00
2023-06-26T07:24:58.961Z,100.00
2023-06-26T07:27:26.683Z,100.00
2023-06-26T07:29:53.256Z,100.00
2023-06-26T07:32:19.904Z,100.00
2023-06-26T07:34:47.529Z,100.00
2023-06-26T07:37:14.470Z,100.00
2023-06-26T07:39:41.144Z,100.00
2023-06-26T07:42:07.777Z,100.00
2023-06-26T07:44:34.892Z,100.00
2023-06-26T07:47:01.492Z,100.00
2023-06-26T07:49:28.249Z,100.00
2023-06-26T07:51:54.972Z,100.00
2023-06-26T07:54:21.845Z,100.00
2023-06-26T07:57:02.381Z,100.00
2023-06-26T07:59:30.903Z,100.00
2023-06-26T08:01:58.469Z,100.00
2023-06-26T08:04:27.610Z,100.00
2023-06-26T08:06:57.208Z,100.00
2023-06-26T08:09:25.662Z,100.00
2023-06-26T08:11:52.691Z,100.00
2023-06-26T08:14:19.625Z,100.00
2023-06-26T08:16:47.253Z,100.00
2023-06-26T08:19:15.208Z,100.00
2023-06-26T08:21:43.011Z,100.00
2023-06-26T08:24:10.220Z,100.00
2023-06-26T08:26:37.701Z,100.00
2023-06-26T08:29:11.788Z,100.00
2023-06-26T08:31:39.705Z,100.00
2023-06-26T08:34:07.021Z,100.00
2023-06-26T08:36:33.632Z,100.00
2023-06-26T08:39:00.360Z,100.00
2023-06-26T08:41:27.151Z,100.00
2023-06-26T08:43:53.865Z,100.00
2023-06-26T08:46:20.997Z,100.00
2023-06-26T08:48:57.377Z,100.00
2023-06-26T08:51:27.154Z,100.00
2023-06-26T08:54:01.558Z,100.00
2023-06-26T08:56:43.210Z,100.00
2023-06-26T08:59:11.969Z,100.00
2023-06-26T09:01:39.409Z,100.00
2023-06-26T09:04:06.993Z,100.00
2023-06-26T09:06:34.449Z,100.00
2023-06-26T09:09:01.083Z,100.00
2023-06-26T09:11:27.905Z,100.00
2023-06-26T09:13:56.648Z,100.00
2023-06-26T09:16:28.156Z,100.00
2023-06-26T09:18:55.620Z,100.00
2023-06-26T09:21:22.818Z,100.00
2023-06-26T09:23:50.984Z,100.00
2023-06-26T09:26:17.874Z,100.00
2023-06-26T09:28:44.860Z,100.00
2023-06-26T09:31:11.474Z,100.00
2023-06-26T09:33:39.552Z,100.00
2023-06-26T09:36:19.920Z,100.00
2023-06-26T09:38:46.445Z,100.00
2023-06-26T09:41:16.423Z,100.00
2023-06-26T09:43:50.787Z,100.00
2023-06-26T09:46:19.207Z,100.00
2023-06-26T09:48:45.901Z,100.00
2023-06-26T09:51:14.827Z,100.00
2023-06-26T09:53:43.368Z,100.00
2023-06-26T09:56:19.872Z,100.00
2023-06-26T09:58:46.798Z,100.00
2023-06-26T10:01:14.162Z,100.00
2023-06-26T10:03:41.193Z,100.00
2023-06-26T10:06:12.941Z,100.00
2023-06-26T10:08:41.096Z,100.00
2023-06-26T10:11:12.962Z,100.00
2023-06-26T10:13:43.418Z,100.00
2023-06-26T10:16:12.064Z,100.00
2023-06-26T10:18:40.282Z,100.00
2023-06-26T10:21:09.350Z,100.00
2023-06-26T10:23:40.147Z,100.00
2023-06-26T10:26:08.613Z,100.00
2023-06-26T10:28:36.512Z,100.00
2023-06-26T10:31:05.798Z,100.00
2023-06-26T10:33:33.008Z,100.00
2023-06-26T10:36:29.719Z,100.00
2023-06-26T10:38:59.385Z,100.00
2023-06-26T10:41:26.711Z,100.00
2023-06-26T10:44:18.197Z,96.61
2023-06-26T10:46:55.166Z,100.00
2023-06-26T10:49:26.468Z,100.00
2023-06-26T10:51:55.035Z,95.01
2023-06-26T10:54:22.753Z,100.00
2023-06-26T10:56:51.232Z,91.27
2023-06-26T10:59:20.872Z,94.29
2023-06-26T11:01:56.005Z,82.85
2023-06-26T11:04:42.189Z,85.73
2023-06-26T11:07:25.281Z,93.68
2023-06-26T11:10:09.064Z,93.13
2023-06-26T11:12:45.455Z,87.45
2023-06-26T11:15:17.109Z,92.81
2023-06-26T11:17:45.099Z,84.09
2023-06-26T11:20:14.849Z,84.40
2023-06-26T11:22:43.593Z,78.35
2023-06-26T11:25:11.214Z,79.32
2023-06-26T11:27:44.755Z,79.10
2023-06-26T11:30:24.132Z,67.42
2023-06-26T11:32:50.984Z,77.73
2023-06-26T11:35:47.526Z,73.08
2023-06-26T11:38:14.788Z,63.28
2023-06-26T11:40:41.837Z,60.73
2023-06-26T11:43:09.228Z,70.16
2023-06-26T11:45:36.528Z,69.02
2023-06-26T11:48:03.497Z,63.27
2023-06-26T11:50:30.186Z,64.20
2023-06-26T11:52:58.708Z,65.65
2023-06-26T11:55:26.266Z,68.09
2023-06-26T11:57:57.823Z,64.46
2023-06-26T12:00:25.250Z,76.74
2023-06-26T12:02:53.113Z,63.86
2023-06-26T12:05:20.986Z,63.99
2023-06-26T12:07:48.737Z,56.99
2023-06-26T12:10:16.579Z,62.47
2023-06-26T12:12:44.172Z,60.11
2023-06-26T12:15:16.478Z,63.08
2023-06-26T12:17:44.475Z,55.82
2023-06-26T12:20:23.776Z,59.32
2023-06-26T12:22:50.818Z,59.42
2023-06-26T12:25:27.494Z,57.55
2023-06-26T12:27:54.015Z,54.86
2023-06-26T12:30:20.986Z,56.59
2023-06-26T12:32:48.146Z,59.43
2023-06-26T12:35:17.293Z,60.00
2023-06-26T12:37:47.228Z,57.54
2023-06-26T12:40:20.074Z,53.76
2023-06-26T12:42:46.977Z,51.88
2023-06-26T12:45:31.118Z,56.38
2023-06-26T12:48:11.850Z,57.24
2023-06-26T12:50:44.583Z,55.71
2023-06-26T12:53:11.395Z,56.03
2023-06-26T12:55:38.431Z,65.76
2023-06-26T12:58:04.926Z,59.91
2023-06-26T13:00:33.089Z,55.70
2023-06-26T13:02:59.876Z,61.95
2023-06-26T13:05:26.730Z,48.06
2023-06-26T13:07:54.665Z,47.18
2023-06-26T13:10:21.213Z,52.37
2023-06-26T13:12:47.890Z,49.21
2023-06-26T13:15:14.385Z,49.94
2023-06-26T13:17:40.995Z,51.46
2023-06-26T13:20:09.722Z,53.38
2023-06-26T13:22:36.731Z,52.92
2023-06-26T13:25:03.447Z,54.17
2023-06-26T13:27:30.225Z,51.99
2023-06-26T13:29:56.757Z,53.82
2023-06-26T13:32:23.263Z,53.30
2023-06-26T13:34:49.920Z,52.92
2023-06-26T13:37:16.426Z,50.73
2023-06-26T13:39:44.474Z,51.47
2023-06-26T13:42:10.990Z,49.23
2023-06-26T13:44:47.965Z,51.44
2023-06-26T13:47:22.937Z,54.03
2023-06-26T13:49:49.636Z,56.26
2023-06-26T13:52:16.466Z,54.85
2023-06-26T13:54:44.370Z,55.98
2023-06-26T13:57:11.243Z,56.66
2023-06-26T13:59:40.976Z,61.54
2023-06-26T14:02:09.051Z,67.97
2023-06-26T14:04:35.868Z,61.65
2023-06-26T14:07:02.590Z,59.48
2023-06-26T14:09:29.498Z,57.06
2023-06-26T14:11:56.145Z,56.40
2023-06-26T14:14:22.722Z,56.22
2023-06-26T14:16:50.123Z,59.31
2023-06-26T14:19:18.541Z,56.19
2023-06-26T14:21:45.358Z,56.60
2023-06-26T14:24:11.972Z,56.88
2023-06-26T14:26:40.216Z,56.49
2023-06-26T14:29:07.230Z,55.80
2023-06-26T14:31:34.401Z,56.24
2023-06-26T14:34:01.222Z,57.91
2023-06-26T14:36:29.057Z,56.73
2023-06-26T14:38:55.914Z,56.86
2023-06-26T14:41:23.240Z,56.28
2023-06-26T14:43:50.304Z,53.78
2023-06-26T14:46:17.354Z,56.29
2023-06-26T14:48:44.501Z,55.79
2023-06-26T14:51:11.061Z,53.77
2023-06-26T14:53:37.588Z,56.75
2023-06-26T14:56:04.657Z,55.33
2023-06-26T14:58:31.225Z,56.79
2023-06-26T15:00:58.768Z,55.37
2023-06-26T15:03:25.552Z,54.63
2023-06-26T15:05:52.892Z,54.32
2023-06-26T15:08:19.434Z,55.73
2023-06-26T15:10:46.459Z,52.10
2023-06-26T15:13:12.979Z,52.87
2023-06-26T15:15:39.731Z,55.91
2023-06-26T15:18:07.681Z,53.32
2023-06-26T15:20:34.380Z,51.25
2023-06-26T15:23:00.983Z,50.63
2023-06-26T15:25:29.275Z,51.62
2023-06-26T15:27:56.019Z,52.22
2023-06-26T15:30:22.566Z,51.60
2023-06-26T15:32:49.400Z,52.64
2023-06-26T15:35:16.278Z,52.34
2023-06-26T15:37:42.803Z,50.52
2023-06-26T15:40:10.122Z,50.68
2023-06-26T15:42:49.342Z,49.33
2023-06-26T15:45:18.717Z,51.38
2023-06-26T15:47:48.567Z,51.08
2023-06-26T15:50:15.597Z,51.06
2023-06-26T15:52:42.248Z,53.48
2023-06-26T15:55:10.706Z,51.16
2023-06-26T15:57:37.551Z,52.28
2023-06-26T16:00:05.521Z,52.36
2023-06-26T16:02:32.291Z,53.35
2023-06-26T16:04:58.871Z,54.72
2023-06-26T16:07:25.700Z,55.74
2023-06-26T16:09:52.228Z,55.78
2023-06-26T16:12:19.212Z,55.11
2023-06-26T16:14:45.766Z,54.39
2023-06-26T16:17:13.470Z,53.99
2023-06-26T16:19:39.965Z,54.97
2023-06-26T16:22:07.921Z,57.56
2023-06-26T16:24:34.518Z,57.92
2023-06-26T16:27:01.370Z,56.56
2023-06-26T16:29:28.217Z,55.55
2023-06-26T16:31:57.612Z,53.65
2023-06-26T16:34:24.314Z,53.25
2023-06-26T16:36:52.123Z,53.23
2023-06-26T16:39:22.975Z,52.72
2023-06-26T16:41:55.569Z,54.58
2023-06-26T16:44:23.211Z,53.96
2023-06-26T16:46:49.982Z,54.41
2023-06-26T16:49:16.987Z,53.98
2023-06-26T16:51:43.563Z,55.23
2023-06-26T16:54:11.052Z,52.61
2023-06-26T16:56:37.949Z,52.45
2023-06-26T16:59:04.567Z,52.97
2023-06-26T17:01:31.267Z,55.66
2023-06-26T17:03:58.290Z,53.64
2023-06-26T17:06:25.249Z,52.06
2023-06-26T17:08:52.100Z,50.61
2023-06-26T17:11:18.713Z,52.85
2023-06-26T17:13:45.452Z,53.44
2023-06-26T17:16:12.642Z,55.73
2023-06-26T17:18:39.332Z,54.86
2023-06-26T17:21:05.864Z,55.12
2023-06-26T17:23:32.900Z,54.72
2023-06-26T17:26:01.960Z,55.58
2023-06-26T17:28:32.077Z,57.60
2023-06-26T17:30:59.016Z,59.87
2023-06-26T17:33:25.595Z,58.52
2023-06-26T17:35:52.100Z,57.08
2023-06-26T17:38:18.605Z,58.17
2023-06-26T17:40:45.324Z,57.84
2023-06-26T17:43:11.834Z,58.57
2023-06-26T17:45:39.164Z,60.19
2023-06-26T17:48:06.166Z,59.59
2023-06-26T17:50:33.193Z,61.41
2023-06-26T17:53:00.231Z,65.89
2023-06-26T17:55:27.069Z,61.05
2023-06-26T17:57:53.719Z,61.91
2023-06-26T18:00:20.898Z,61.11
2023-06-26T18:02:47.622Z,65.87
2023-06-26T18:05:14.776Z,60.38
2023-06-26T18:08:01.656Z,61.19
2023-06-26T18:10:27.919Z,62.29
2023-06-26T18:12:57.060Z,63.62
2023-06-26T18:15:23.992Z,62.54
2023-06-26T18:17:50.557Z,63.76
2023-06-26T18:20:17.312Z,62.72
2023-06-26T18:22:43.967Z,61.81
2023-06-26T18:25:10.498Z,64.85
2023-06-26T18:27:40.686Z,65.73
2023-06-26T18:30:08.351Z,66.75
2023-06-26T18:32:34.895Z,66.52
2023-06-26T18:35:01.711Z,65.46
2023-06-26T18:37:28.467Z,69.23
2023-06-26T18:39:54.998Z,67.64
2023-06-26T18:42:22.737Z,67.43
2023-06-26T18:44:50.408Z,66.69
2023-06-26T18:47:17.103Z,66.93
2023-06-26T18:49:43.715Z,68.90
2023-06-26T18:52:10.684Z,67.57
2023-06-26T18:54:37.208Z,73.79
2023-06-26T18:57:04.110Z,69.38
2023-06-26T18:59:30.616Z,68.94
2023-06-26T19:01:57.364Z,71.71
2023-06-26T19:04:25.112Z,72.77
2023-06-26T19:06:51.983Z,74.36
2023-06-26T19:09:18.908Z,75.40
2023-06-26T19:11:45.899Z,76.57
2023-06-26T19:14:12.435Z,78.37
2023-06-26T19:16:39.655Z,79.13
2023-06-26T19:19:06.915Z,81.62
2023-06-26T19:21:33.852Z,82.66
2023-06-26T19:24:00.363Z,83.86
2023-06-26T19:26:26.878Z,87.23
2023-06-26T19:28:53.443Z,84.04
2023-06-26T19:31:20.150Z,83.59
2023-06-26T19:33:46.769Z,85.25
2023-06-26T19:36:15.914Z,87.86
2023-06-26T19:38:42.527Z,91.78
2023-06-26T19:41:09.184Z,95.03
2023-06-26T19:43:35.665Z,92.66
2023-06-26T19:46:03.101Z,94.06
2023-06-26T19:48:30.794Z,93.40
2023-06-26T19:50:57.589Z,97.84
2023-06-26T19:53:28.058Z,97.77
2023-06-26T19:55:54.612Z,99.12
2023-06-26T19:58:21.401Z,100.00
2023-06-26T20:00:48.033Z,100.00
2023-06-26T20:03:16.169Z,100.00
2023-06-26T20:05:43.349Z,100.00
2023-06-26T20:08:10.126Z,100.00
2023-06-26T20:10:38.018Z,100.00
2023-06-26T20:13:05.045Z,100.00
2023-06-26T20:15:31.747Z,100.00
2023-06-26T20:17:58.326Z,100.00
2023-06-26T20:20:25.254Z,100.00
2023-06-26T20:22:51.882Z,100.00
2023-06-26T20:25:18.928Z,100.00
2023-06-26T20:27:45.444Z,100.00
2023-06-26T20:30:12.442Z,100.00
2023-06-26T20:32:39.368Z,100.00
2023-06-26T20:35:06.509Z,100.00
2023-06-26T20:37:33.470Z,100.00
2023-06-26T20:40:01.032Z,100.00
2023-06-26T20:42:28.004Z,100.00
2023-06-26T20:44:58.259Z,100.00
2023-06-26T20:47:34.385Z,100.00
2023-06-26T20:50:01.892Z,100.00
2023-06-26T20:52:30.376Z,100.00
2023-06-26T20:54:57.579Z,100.00
2023-06-26T20:57:24.223Z,100.00
2023-06-26T20:59:51.057Z,100.00
2023-06-26T21:02:17.770Z,100.00
2023-06-26T21:04:44.426Z,100.00
2023-06-26T21:07:11.148Z,100.00
2023-06-26T21:09:37.713Z,100.00
2023-06-26T21:12:04.802Z,100.00
2023-06-26T21:14:31.978Z,100.00
2023-06-26T21:16:58.627Z,100.00
2023-06-26T21:19:25.696Z,100.00
2023-06-26T21:21:52.526Z,100.00
2023-06-26T21:24:19.126Z,100.00
2023-06-26T21:26:46.006Z,100.00
2023-06-26T21:29:12.593Z,100.00
2023-06-26T21:31:39.227Z,100.00
2023-06-26T21:34:06.052Z,100.00
2023-06-26T21:36:32.729Z,100.00
2023-06-26T21:38:59.620Z,100.00
2023-06-26T21:41:29.105Z,100.00
2023-06-26T21:43:55.671Z,100.00
2023-06-26T21:46:22.672Z,100.00
2023-06-26T21:48:49.330Z,100.00
2023-06-26T21:51:16.509Z,100.00
2023-06-26T21:53:43.014Z,100.00
2023-06-26T21:56:09.780Z,100.00
2023-06-26T21:58:36.380Z,100.00
2023-06-26T22:01:02.896Z,100.00
2023-06-26T22:03:29.579Z,100.00
2023-06-26T22:05:56.640Z,100.00
2023-06-26T22:08:23.509Z,100.00
2023-06-26T22:10:50.099Z,100.00
2023-06-26T22:13:16.829Z,100.00
2023-06-26T22:15:43.489Z,100.00
2023-06-26T22:18:10.833Z,100.00
2023-06-26T22:20:37.871Z,100.00
2023-06-26T22:23:04.360Z,100.00
2023-06-26T22:25:31.348Z,100.00
2023-06-26T22:27:57.945Z,100.00
2023-06-26T22:30:31.163Z,100.00
2023-06-26T22:32:58.145Z,100.00
2023-06-26T22:35:25.041Z,100.00
2023-06-26T22:37:52.070Z,100.00
2023-06-26T22:40:19.524Z,100.00
2023-06-26T22:42:46.212Z,100.00
2023-06-26T22:45:13.132Z,100.00
2023-06-26T22:47:44.658Z,100.00
2023-06-26T22:50:11.535Z,100.00
2023-06-26T22:52:38.773Z,100.00
2023-06-26T22:55:05.801Z,100.00
2023-06-26T22:57:34.717Z,100.00
2023-06-26T23:00:01.312Z,100.00
2023-06-26T23:02:27.998Z,100.00
2023-06-26T23:04:54.946Z,100.00
2023-06-26T23:07:22.106Z,100.00
2023-06-26T23:09:49.716Z,100.00
2023-06-26T23:12:16.907Z,100.00
2023-06-26T23:14:43.623Z,100.00
2023-06-26T23:17:12.286Z,100.00
2023-06-26T23:19:40.982Z,100.00
2023-06-26T23:22:10.266Z,100.00
2023-06-26T23:24:38.149Z,100.00
2023-06-26T23:27:09.875Z,100.00
2023-06-26T23:29:38.243Z,100.00
2023-06-26T23:32:09.296Z,100.00
2023-06-26T23:34:40.267Z,100.00
2023-06-26T23:37:13.711Z,100.00
2023-06-26T23:39:41.618Z,100.00
2023-06-26T23:42:08.231Z,100.00
2023-06-26T23:44:37.548Z,100.00
2023-06-26T23:47:05.379Z,100.00
2023-06-26T23:49:33.206Z,100.00
2023-06-26T23:52:00.186Z,100.00
2023-06-26T23:54:28.840Z,100.00
2023-06-26T23:56:56.178Z,100.00
2023-06-26T23:59:23.547Z,100.00
